Time;durP1;ratioP1;P1;durP2;ratioP2;P2;SDS_P1;SDS_P2;PMS_P1;PMS_P2;Temp;Humidity;BMP_temperature;BMP_pressure;BME280_temperature;BME280_humidity;BME280_pressure;Samples;Min_cycle;Max_cycle;Signal;HPM_P1;HPM_P2
2024/03/16 00:00:37;;;;;;;18.88;3.47;;;11.50;99.90;;;;;;5014350;28;20500;-78
2024/03/16 00:03:04;;;;;;;15.60;2.55;;;11.50;99.90;;;;;;5014277;28;20029;-78
2024/03/16 00:05:30;;;;;;;17.73;3.00;;;11.60;99.90;;;;;;5014157;28;20014;-78
2024/03/16 00:07:55;;;;;;;19.00;2.80;;;11.70;99.90;;;;;;5013409;28;20022;-78
2024/03/16 00:10:21;;;;;;;14.20;2.72;;;11.70;99.90;;;;;;5015056;28;20366;-77
2024/03/16 00:12:48;;;;;;;17.50;3.13;;;11.80;99.90;;;;;;5013807;28;20028;-78
2024/03/16 00:15:13;;;;;;;11.43;3.00;;;11.80;99.90;;;;;;5015337;28;20029;-78
2024/03/16 00:17:39;;;;;;;15.73;3.28;;;11.80;99.90;;;;;;5015338;28;20030;-77
2024/03/16 00:20:10;;;;;;;13.75;2.90;;;11.80;99.90;;;;;;5015366;28;20386;-78
2024/03/16 00:22:37;;;;;;;17.88;3.53;;;11.80;99.90;;;;;;5014850;28;20104;-77
2024/03/16 00:25:03;;;;;;;16.20;4.03;;;11.80;99.90;;;;;;5015040;28;20543;-78
2024/03/16 00:27:29;;;;;;;20.80;3.42;;;11.90;99.90;;;;;;5015028;28;20481;-78
2024/03/16 00:29:55;;;;;;;15.40;3.70;;;11.90;99.90;;;;;;5015607;28;20032;-77
2024/03/16 00:32:21;;;;;;;20.35;3.75;;;11.90;99.90;;;;;;5014640;28;20088;-78
2024/03/16 00:34:47;;;;;;;15.18;4.15;;;11.90;99.90;;;;;;5014988;28;20026;-78
2024/03/16 00:37:13;;;;;;;15.80;3.85;;;11.90;99.90;;;;;;5014858;28;20092;-78
2024/03/16 00:39:39;;;;;;;21.92;4.40;;;11.90;99.90;;;;;;5013298;28;20018;-78
2024/03/16 00:42:06;;;;;;;19.30;4.07;;;11.80;99.90;;;;;;5014953;28;20105;-78
2024/03/16 00:44:31;;;;;;;21.52;5.05;;;11.80;99.90;;;;;;5014459;28;20033;-78
2024/03/16 00:46:57;;;;;;;18.75;4.57;;;11.70;99.90;;;;;;5013406;28;20040;-78
2024/03/16 00:49:23;;;;;;;21.90;4.78;;;11.60;99.90;;;;;;5013427;28;20057;-78
2024/03/16 00:51:50;;;;;;;19.33;4.15;;;11.50;99.90;;;;;;5014667;28;20022;-77
2024/03/16 00:54:15;;;;;;;17.77;3.85;;;11.50;99.90;;;;;;5013206;28;20397;-77
2024/03/16 00:56:43;;;;;;;18.85;3.67;;;11.40;99.90;;;;;;5013235;28;20026;-77
2024/03/16 00:59:09;;;;;;;24.40;6.22;;;11.40;99.90;;;;;;5014261;28;20533;-78
2024/03/16 01:01:34;;;;;;;30.30;6.22;;;11.30;99.90;;;;;;5014229;28;20100;-78
2024/03/16 01:04:01;;;;;;;18.73;4.70;;;11.30;99.90;;;;;;5013078;28;20156;-78
2024/03/16 01:06:26;;;;;;;23.23;5.28;;;11.30;99.90;;;;;;5014435;28;20105;-78
2024/03/16 01:08:52;;;;;;;16.15;4.43;;;11.30;99.90;;;;;;5012794;28;20139;-78
2024/03/16 01:11:19;;;;;;;20.42;5.70;;;11.20;99.90;;;;;;5029198;28;20025;-78
2024/03/16 01:13:44;;;;;;;18.38;5.85;;;11.20;99.90;;;;;;5012902;28;20022;-78
2024/03/16 01:16:10;;;;;;;20.55;6.03;;;11.20;99.90;;;;;;5012873;28;20022;-78
2024/03/16 01:18:39;;;;;;;28.25;6.43;;;11.20;99.90;;;;;;5012940;28;20540;-78
2024/03/16 01:21:06;;;;;;;26.70;7.65;;;11.20;99.90;;;;;;5013902;28;20018;-78
2024/03/16 01:23:33;;;;;;;25.85;7.85;;;11.10;99.90;;;;;;5012318;28;20505;-78
2024/03/16 01:25:59;;;;;;;21.67;7.53;;;11.10;99.90;;;;;;5013885;28;20533;-78
2024/03/16 01:28:25;;;;;;;24.08;8.63;;;11.10;99.90;;;;;;5013726;28;20097;-78
2024/03/16 01:30:51;;;;;;;22.45;7.55;;;11.10;99.90;;;;;;5012428;28;20088;-78
2024/03/16 01:33:18;;;;;;;26.88;9.40;;;11.10;99.90;;;;;;5013898;28;20043;-78
2024/03/16 01:35:44;;;;;;;18.67;7.18;;;11.10;99.90;;;;;;5012480;28;20018;-78
2024/03/16 01:38:09;;;;;;;24.73;8.77;;;11.10;99.90;;;;;;5011937;28;20390;-77
2024/03/16 01:40:35;;;;;;;24.30;7.28;;;11.00;99.90;;;;;;5012490;28;20050;-78
2024/03/16 01:43:01;;;;;;;23.77;8.65;;;11.10;99.90;;;;;;5013666;28;20468;-78
2024/03/16 01:45:27;;;;;;;21.38;7.57;;;11.10;99.90;;;;;;5012225;28;20026;-77
2024/03/16 01:47:54;;;;;;;22.55;8.40;;;11.10;99.90;;;;;;5012283;28;20358;-78
2024/03/16 01:50:20;;;;;;;22.67;8.75;;;11.00;99.90;;;;;;5013624;28;20040;-78
2024/03/16 01:52:47;;;;;;;25.33;8.27;;;11.10;99.90;;;;;;5013245;28;20026;-78
2024/03/16 01:55:14;;;;;;;18.25;7.60;;;11.00;99.90;;;;;;5013607;28;20111;-78
2024/03/16 01:57:40;;;;;;;22.00;7.35;;;11.00;99.90;;;;;;5011804;28;20559;-78
2024/03/16 02:00:06;;;;;;;20.55;7.60;;;11.00;99.90;;;;;;5013416;28;20018;-78
2024/03/16 02:02:36;;;;;;;21.52;8.07;;;11.00;99.90;;;;;;5014883;28;20037;-77
2024/03/16 02:05:06;;;;;;;27.50;8.48;;;11.00;99.90;;;;;;5028562;28;20477;-77
2024/03/16 02:07:36;;;;;;;23.90;7.90;;;11.00;99.90;;;;;;5011984;28;20029;-78
2024/03/16 02:10:04;;;;;;;22.83;8.13;;;11.00;99.90;;;;;;5013328;28;20029;-78
2024/03/16 02:12:30;;;;;;;29.27;9.23;;;11.00;99.90;;;;;;5013028;28;20032;-77
2024/03/16 02:14:56;;;;;;;18.83;7.65;;;11.00;99.90;;;;;;5012769;28;20021;-78
2024/03/16 02:17:22;;;;;;;29.13;9.50;;;11.00;99.90;;;;;;5012169;28;20033;-77
2024/03/16 02:19:48;;;;;;;33.53;10.07;;;11.00;99.90;;;;;;5011709;28;20515;-77
2024/03/16 02:22:14;;;;;;;26.02;8.82;;;11.00;99.90;;;;;;5011532;28;20046;-77
2024/03/16 02:24:40;;;;;;;33.60;9.63;;;11.00;99.90;;;;;;5012996;28;20057;-78
2024/03/16 02:27:06;;;;;;;32.42;9.25;;;10.90;99.90;;;;;;5011595;28;20442;-77
2024/03/16 02:29:35;;;;;;;27.38;10.02;;;11.00;99.90;;;;;;5012612;28;20381;-77
2024/03/16 02:32:01;;;;;;;27.33;9.23;;;11.00;99.90;;;;;;5011574;28;20026;-78
2024/03/16 02:34:27;;;;;;;20.98;9.05;;;11.00;99.90;;;;;;5011749;28;20073;-78
2024/03/16 02:36:52;;;;;;;26.33;10.45;;;10.90;99.90;;;;;;5012879;28;20477;-77
2024/03/16 02:39:20;;;;;;;25.75;10.35;;;10.90;99.90;;;;;;5027946;28;20362;-77
2024/03/16 02:41:46;;;;;;;37.72;11.85;;;11.00;99.90;;;;;;5010978;28;20362;-77
2024/03/16 02:44:11;;;;;;;29.48;11.27;;;10.90;99.90;;;;;;5011625;28;20093;-77
2024/03/16 02:46:37;;;;;;;33.67;11.85;;;10.90;99.90;;;;;;5012955;28;20026;-77
2024/03/16 02:49:03;;;;;;;33.22;12.77;;;10.90;99.90;;;;;;5012431;28;20018;-77
2024/03/16 02:51:28;;;;;;;38.70;12.65;;;10.90;99.90;;;;;;5012251;28;20033;-76
2024/03/16 02:53:56;;;;;;;38.05;13.82;;;11.00;99.90;;;;;;5012677;28;20049;-77
2024/03/16 02:56:22;;;;;;;32.60;13.07;;;10.90;99.90;;;;;;5011449;28;20026;-76
2024/03/16 02:58:48;;;;;;;32.40;11.73;;;10.90;99.90;;;;;;5012763;28;20080;-77
2024/03/16 03:01:14;;;;;;;26.15;9.02;;;10.80;99.90;;;;;;5012934;28;20497;-77
2024/03/16 03:03:40;;;;;;;25.23;9.00;;;10.80;99.90;;;;;;5012703;28;20021;-77
2024/03/16 03:06:08;;;;;;;28.27;8.05;;;10.80;99.90;;;;;;5011505;28;20118;-81
2024/03/16 03:08:33;;;;;;;21.48;6.35;;;10.80;99.90;;;;;;5012695;28;20045;-77
2024/03/16 03:10:59;;;;;;;22.15;5.63;;;10.70;99.90;;;;;;5012596;28;20065;-78
2024/03/16 03:13:25;;;;;;;13.20;4.80;;;10.70;99.90;;;;;;5012490;28;20022;-77
2024/03/16 03:15:51;;;;;;;16.03;4.73;;;10.60;99.90;;;;;;5027754;28;20033;-78
2024/03/16 03:18:16;;;;;;;12.23;3.80;;;10.60;99.90;;;;;;5027963;28;20473;-79
2024/03/16 03:20:43;;;;;;;13.23;3.78;;;10.40;99.90;;;;;;5012503;28;20030;-79
2024/03/16 03:23:08;;;;;;;14.63;4.27;;;10.40;99.90;;;;;;5012559;28;20497;-77
2024/03/16 03:25:34;;;;;;;9.23;3.40;;;10.40;99.90;;;;;;5012716;28;20036;-77
2024/03/16 03:28:01;;;;;;;10.82;3.30;;;10.40;99.90;;;;;;5012150;28;20026;-78
2024/03/16 03:30:27;;;;;;;12.93;2.90;;;10.30;99.90;;;;;;5012730;28;20098;-80
2024/03/16 03:32:52;;;;;;;10.53;2.37;;;10.30;99.90;;;;;;5027826;28;20068;-77
2024/03/16 03:35:18;;;;;;;11.17;2.20;;;10.20;99.90;;;;;;5027053;28;20068;-78
2024/03/16 03:37:43;;;;;;;8.20;2.03;;;10.20;99.90;;;;;;5012109;28;20417;-78
2024/03/16 03:40:09;;;;;;;11.03;2.37;;;10.20;99.90;;;;;;5012437;28;20084;-76
2024/03/16 03:42:35;;;;;;;7.13;2.10;;;10.10;99.90;;;;;;5013792;28;20084;-77
2024/03/16 03:48:02;;;;;;;7.77;2.37;;;10.10;99.90;;;;;;5015602;28;20041;-79
2024/03/16 03:50:32;;;;;;;6.87;2.27;;;10.00;99.90;;;;;;5015533;28;20029;-77
2024/03/16 03:53:02;;;;;;;9.20;2.40;;;10.00;99.90;;;;;;5015610;28;20026;-77
2024/03/16 03:55:28;;;;;;;7.83;2.37;;;10.00;99.90;;;;;;5015747;28;20083;-76
2024/03/16 03:57:54;;;;;;;6.40;2.17;;;9.90;99.90;;;;;;5015807;28;20037;-76
2024/03/16 04:00:20;;;;;;;6.70;2.53;;;9.90;99.90;;;;;;5014086;28;20036;-76
2024/03/16 04:02:45;;;;;;;14.10;3.37;;;9.90;99.90;;;;;;5015740;28;20105;-76
2024/03/16 04:05:12;;;;;;;8.27;3.20;;;9.90;99.90;;;;;;5015514;28;20034;-77
2024/03/16 04:07:38;;;;;;;10.63;3.80;;;9.90;99.90;;;;;;5014266;28;20486;-76
2024/03/16 04:10:04;;;;;;;9.17;4.53;;;9.80;99.90;;;;;;5015373;28;20050;-76
2024/03/16 04:12:30;;;;;;;11.83;6.53;;;9.80;99.90;;;;;;5030493;28;20022;-76
2024/03/16 04:14:56;;;;;;;8.80;4.87;;;9.80;99.90;;;;;;5015297;28;20089;-77
2024/03/16 04:17:22;;;;;;;11.60;4.70;;;9.80;99.90;;;;;;5014974;28;20113;-76
2024/03/16 04:19:48;;;;;;;7.43;3.97;;;9.80;99.90;;;;;;5015349;28;20473;-77
2024/03/16 04:22:14;;;;;;;7.10;3.43;;;9.70;99.90;;;;;;5030286;28;20052;-77
2024/03/16 04:24:40;;;;;;;12.17;3.70;;;9.60;99.90;;;;;;5029712;28;20117;-77
2024/03/16 04:27:06;;;;;;;5.13;2.40;;;9.60;99.90;;;;;;5014796;28;20021;-77
2024/03/16 04:29:31;;;;;;;5.33;1.97;;;9.60;99.90;;;;;;5015080;28;20439;-77
2024/03/16 04:31:58;;;;;;;6.07;2.00;;;9.50;99.90;;;;;;5029569;28;20057;-76
2024/03/16 04:34:25;;;;;;;4.10;1.77;;;9.50;99.90;;;;;;5014642;28;20389;-76
2024/03/16 04:36:51;;;;;;;2.73;1.37;;;9.40;99.90;;;;;;5029867;28;20077;-76
2024/03/16 04:39:17;;;;;;;5.67;1.70;;;9.40;99.90;;;;;;5015092;28;20034;-76
2024/03/16 04:41:43;;;;;;;6.40;1.70;;;9.40;99.90;;;;;;5030146;28;20462;-76
2024/03/16 04:44:09;;;;;;;5.97;1.30;;;9.40;99.90;;;;;;5014881;28;20029;-77
2024/03/16 04:46:35;;;;;;;5.83;1.53;;;9.30;99.90;;;;;;5014399;28;20474;-76
2024/03/16 04:49:00;;;;;;;8.13;2.00;;;9.30;99.90;;;;;;5030063;28;20499;-76
2024/03/16 04:51:26;;;;;;;10.60;1.33;;;9.30;99.90;;;;;;5014344;28;20065;-76
2024/03/16 04:53:52;;;;;;;7.37;1.53;;;9.20;99.90;;;;;;5014305;28;20033;-76
2024/03/16 04:56:17;;;;;;;8.53;1.97;;;9.30;99.90;;;;;;5029593;28;20470;-76
2024/03/16 04:58:43;;;;;;;7.47;1.90;;;9.20;99.90;;;;;;5014135;28;20026;-77
2024/03/16 05:01:09;;;;;;;7.50;1.63;;;9.20;99.90;;;;;;5031282;28;20107;-76
2024/03/16 05:03:35;;;;;;;7.53;1.53;;;9.10;99.90;;;;;;5031065;28;20022;-76
2024/03/16 05:06:01;;;;;;;6.60;1.40;;;9.20;99.90;;;;;;5029438;28;20030;-77
2024/03/16 05:08:27;;;;;;;6.33;1.40;;;9.10;99.90;;;;;;5029302;28;20022;-78
2024/03/16 05:10:52;;;;;;;4.77;1.97;;;9.10;99.90;;;;;;5029276;28;20057;-77
2024/03/16 05:13:18;;;;;;;5.07;1.53;;;9.10;99.90;;;;;;5014419;28;20025;-76
2024/03/16 05:15:43;;;;;;;6.27;1.40;;;9.10;99.90;;;;;;5014256;28;20124;-78
2024/03/16 05:18:09;;;;;;;8.10;1.93;;;9.10;99.90;;;;;;5029009;28;20366;-77
2024/03/16 05:20:35;;;;;;;7.10;1.73;;;9.10;99.90;;;;;;5013610;28;20026;-77
2024/03/16 05:23:00;;;;;;;6.90;2.00;;;9.10;99.90;;;;;;5028771;28;20111;-77
2024/03/16 05:25:26;;;;;;;8.77;2.30;;;9.10;99.90;;;;;;5029195;28;20037;-76
2024/03/16 05:27:52;;;;;;;7.20;2.37;;;9.10;99.90;;;;;;5029121;28;20030;-76
2024/03/16 05:30:18;;;;;;;9.23;1.50;;;9.10;99.90;;;;;;5028979;28;20105;-77
2024/03/16 05:32:43;;;;;;;11.93;2.50;;;9.10;99.90;;;;;;5012988;28;20021;-76
2024/03/16 05:35:10;;;;;;;4.60;1.53;;;9.10;99.90;;;;;;5028732;28;20026;-76
2024/03/16 05:37:36;;;;;;;6.43;1.53;;;9.00;99.90;;;;;;5028677;28;20170;-77
2024/03/16 05:40:02;;;;;;;9.83;1.63;;;9.00;99.90;;;;;;5028982;28;20072;-77
2024/03/16 05:42:28;;;;;;;7.00;2.00;;;9.10;99.90;;;;;;5013393;28;20025;-77
2024/03/16 05:44:54;;;;;;;13.00;2.53;;;9.00;99.90;;;;;;5013307;28;20087;-76
2024/03/16 05:47:21;;;;;;;8.50;1.47;;;9.00;99.90;;;;;;5013491;28;20370;-77
2024/03/16 05:49:47;;;;;;;8.43;1.77;;;9.00;99.90;;;;;;5028668;28;20026;-77
2024/03/16 05:52:13;;;;;;;9.67;1.77;;;9.00;99.90;;;;;;5028649;28;20112;-76
2024/03/16 05:54:39;;;;;;;8.63;1.77;;;9.00;99.90;;;;;;5013314;28;20056;-76
2024/03/16 05:57:05;;;;;;;8.37;1.97;;;9.00;99.90;;;;;;5028631;28;20022;-76
2024/03/16 05:59:31;;;;;;;9.50;1.57;;;9.00;99.90;;;;;;5013488;28;20026;-77
2024/03/16 06:01:57;;;;;;;9.37;1.33;;;9.00;99.90;;;;;;5013558;28;20021;-78
2024/03/16 06:04:22;;;;;;;6.53;1.07;;;9.00;99.90;;;;;;5020270;28;20022;-77
2024/03/16 06:06:48;;;;;;;5.77;1.03;;;9.00;99.90;;;;;;4992646;28;20034;-77
2024/03/16 06:09:14;;;;;;;8.17;1.20;;;8.90;99.90;;;;;;5011787;28;20082;-76
2024/03/16 06:11:40;;;;;;;4.13;0.87;;;8.90;99.90;;;;;;5013046;28;20097;-77
2024/03/16 06:14:09;;;;;;;7.83;1.07;;;8.90;99.90;;;;;;5011214;28;20026;-77
2024/03/16 06:16:35;;;;;;;2.87;0.60;;;8.90;99.90;;;;;;5013138;28;20026;-77
2024/03/16 06:19:01;;;;;;;4.73;0.80;;;8.90;99.90;;;;;;5011895;28;20026;-76
2024/03/16 06:21:29;;;;;;;4.33;0.93;;;8.80;99.90;;;;;;5011744;28;20405;-77
2024/03/16 06:23:55;;;;;;;5.43;0.70;;;8.70;99.90;;;;;;5011823;28;20608;-77
2024/03/16 06:26:21;;;;;;;1.47;0.50;;;8.70;99.90;;;;;;5013346;28;20117;-76
2024/03/16 06:28:54;;;;;;;9.63;0.50;;;8.70;99.90;;;;;;5012747;28;20025;-77
2024/03/16 06:31:32;;;;;;;3.70;0.53;;;8.70;99.90;;;;;;5012919;28;20500;-76
2024/03/16 06:33:58;;;;;;;5.87;1.00;;;8.60;99.90;;;;;;5012151;28;20159;-77
2024/03/16 06:36:24;;;;;;;5.17;0.60;;;8.60;99.90;;;;;;5013024;28;20029;-76
2024/03/16 06:38:50;;;;;;;2.83;0.47;;;8.60;99.90;;;;;;5011839;28;20025;-77
2024/03/16 06:41:15;;;;;;;3.73;0.50;;;8.60;99.90;;;;;;4997362;28;20104;-76
2024/03/16 06:43:41;;;;;;;2.40;0.47;;;8.70;99.90;;;;;;4992938;28;20031;-76
2024/03/16 06:46:08;;;;;;;4.43;0.40;;;8.70;99.90;;;;;;4992917;28;20022;-77
2024/03/16 06:48:34;;;;;;;3.70;0.40;;;8.70;99.90;;;;;;4992950;28;20027;-77
2024/03/16 06:51:00;;;;;;;3.13;0.60;;;8.70;99.90;;;;;;4992831;28;20025;-77
2024/03/16 06:53:26;;;;;;;4.43;0.50;;;8.70;99.90;;;;;;4993128;28;20089;-77
2024/03/16 06:55:52;;;;;;;5.40;0.67;;;8.70;99.90;;;;;;4991524;28;20081;-77
2024/03/16 06:58:17;;;;;;;8.57;0.73;;;8.70;99.90;;;;;;4993117;28;20031;-78
2024/03/16 07:00:43;;;;;;;4.80;0.60;;;8.70;99.90;;;;;;4992915;28;20026;-78
2024/03/16 07:03:10;;;;;;;5.20;0.80;;;8.70;99.90;;;;;;4993131;28;20098;-78
2024/03/16 07:05:37;;;;;;;5.73;0.80;;;8.70;99.90;;;;;;4993194;28;20027;-80
2024/03/16 07:08:03;;;;;;;6.27;0.87;;;8.60;99.90;;;;;;4992020;28;20037;-78
2024/03/16 07:10:29;;;;;;;6.70;0.80;;;8.70;99.90;;;;;;4991753;28;20443;-78
2024/03/16 07:12:54;;;;;;;4.33;1.00;;;8.70;99.90;;;;;;4991541;28;20034;-77
2024/03/16 07:15:20;;;;;;;4.80;0.90;;;8.50;99.90;;;;;;4993020;28;20576;-78
2024/03/16 07:17:46;;;;;;;6.60;1.03;;;8.60;99.90;;;;;;4996521;28;20474;-79
2024/03/16 07:20:14;;;;;;;7.33;1.50;;;8.70;99.90;;;;;;4995671;28;20026;-78
2024/03/16 07:22:40;;;;;;;9.20;1.10;;;8.70;99.90;;;;;;4995424;28;20042;-78
2024/03/16 07:25:07;;;;;;;5.37;0.90;;;8.70;99.90;;;;;;4997538;28;20170;-78
2024/03/16 07:27:33;;;;;;;5.87;1.03;;;8.70;99.90;;;;;;5007451;28;20026;-78
2024/03/16 07:29:59;;;;;;;7.17;0.77;;;8.70;99.90;;;;;;5016141;28;20068;-78
2024/03/16 07:32:25;;;;;;;3.67;0.60;;;8.80;99.90;;;;;;5014554;28;20017;-78
2024/03/16 07:34:51;;;;;;;6.13;0.80;;;8.80;99.90;;;;;;5014878;28;20092;-78
2024/03/16 07:37:17;;;;;;;6.73;0.60;;;8.90;99.90;;;;;;5014377;28;20084;-78
2024/03/16 07:39:44;;;;;;;7.60;1.00;;;9.00;99.90;;;;;;5015935;28;20026;-78
2024/03/16 07:42:10;;;;;;;6.23;0.93;;;9.00;99.90;;;;;;5014566;28;20050;-78
2024/03/16 07:44:35;;;;;;;6.97;0.70;;;9.00;99.90;;;;;;5016024;28;20065;-78
2024/03/16 07:47:01;;;;;;;8.53;1.57;;;9.10;99.90;;;;;;5015888;28;20110;-78
2024/03/16 07:49:28;;;;;;;6.10;1.20;;;9.10;99.90;;;;;;5030674;28;20057;-78
2024/03/16 07:51:54;;;;;;;4.57;0.60;;;9.10;99.90;;;;;;5030905;28;20092;-77
2024/03/16 07:54:19;;;;;;;10.07;1.07;;;9.10;99.90;;;;;;5015740;28;20022;-78
2024/03/16 07:56:45;;;;;;;5.13;0.77;;;9.20;99.90;;;;;;5030489;28;20030;-78
2024/03/16 07:59:11;;;;;;;6.40;0.70;;;9.20;99.90;;;;;;5031351;28;20026;-78
2024/03/16 08:01:36;;;;;;;3.20;0.67;;;9.20;99.90;;;;;;5017900;28;20080;-78
2024/03/16 08:04:02;;;;;;;5.90;0.90;;;9.20;99.90;;;;;;5015462;28;20030;-78
2024/03/16 08:06:28;;;;;;;12.70;1.13;;;9.20;99.90;;;;;;5015546;28;20101;-77
2024/03/16 08:08:54;;;;;;;6.00;0.80;;;9.30;99.90;;;;;;5015663;28;20017;-78
2024/03/16 08:11:20;;;;;;;3.27;1.17;;;9.20;99.90;;;;;;5012515;28;20014;-78
2024/03/16 08:13:46;;;;;;;3.50;0.70;;;9.20;99.90;;;;;;5021709;28;20473;-78
2024/03/16 08:16:11;;;;;;;6.90;1.20;;;9.30;99.90;;;;;;5020945;28;20022;-78
2024/03/16 08:18:37;;;;;;;8.33;0.80;;;9.30;99.90;;;;;;5005333;28;20069;-78
2024/03/16 08:21:03;;;;;;;4.17;0.73;;;9.30;99.90;;;;;;4997641;28;20029;-78
2024/03/16 08:23:29;;;;;;;9.73;1.40;;;9.40;99.90;;;;;;5014204;28;20516;-78
2024/03/16 08:25:55;;;;;;;5.47;0.77;;;9.40;99.90;;;;;;5025374;28;20473;-77
2024/03/16 08:28:21;;;;;;;13.37;1.70;;;9.40;99.90;;;;;;5021171;28;20022;-78
2024/03/16 08:30:47;;;;;;;9.87;1.00;;;9.50;99.90;;;;;;5023674;28;20028;-78
2024/03/16 08:33:12;;;;;;;7.03;0.77;;;9.50;99.90;;;;;;5024319;28;20017;-79
2024/03/16 08:35:38;;;;;;;6.87;0.70;;;9.60;99.90;;;;;;5026330;28;20507;-79
2024/03/16 08:38:07;;;;;;;7.13;1.50;;;9.60;99.90;;;;;;5049989;28;20021;-78
2024/03/16 08:40:33;;;;;;;6.87;0.87;;;9.70;99.90;;;;;;5034611;28;20388;-78
2024/03/16 08:42:58;;;;;;;8.13;0.70;;;9.70;99.90;;;;;;5029612;28;20117;-78
2024/03/16 08:45:24;;;;;;;6.17;0.93;;;9.80;99.90;;;;;;5019021;28;20027;-78
2024/03/16 08:47:50;;;;;;;7.20;1.03;;;9.80;99.90;;;;;;5024925;28;20359;-78
2024/03/16 08:50:15;;;;;;;3.20;1.00;;;9.90;99.90;;;;;;5023731;28;20017;-78
2024/03/16 08:52:42;;;;;;;6.80;0.93;;;10.10;99.90;;;;;;5020051;28;20580;-78
2024/03/16 08:55:12;;;;;;;4.10;0.77;;;10.20;99.90;;;;;;5005986;28;20014;-78
2024/03/16 08:57:41;;;;;;;5.47;1.00;;;10.30;99.90;;;;;;5001560;28;20112;-80
2024/03/16 09:00:12;;;;;;;8.05;0.90;;;10.30;99.90;;;;;;4996536;28;20486;-78
2024/03/16 09:02:37;;;;;;;6.55;0.80;;;10.40;99.90;;;;;;5018020;28;20026;-79
2024/03/16 09:05:03;;;;;;;7.68;0.80;;;10.30;99.90;;;;;;4993022;28;20030;-82
2024/03/16 09:07:29;;;;;;;8.50;1.10;;;10.20;99.90;;;;;;5009178;28;20501;-80
2024/03/16 09:09:57;;;;;;;4.83;0.77;;;10.20;99.90;;;;;;4994390;28;20014;-80
2024/03/16 09:12:23;;;;;;;2.57;0.60;;;10.10;99.90;;;;;;4994413;28;20477;-78
2024/03/16 09:14:49;;;;;;;3.00;0.50;;;10.00;99.90;;;;;;5009425;28;20029;-78
2024/03/16 09:17:14;;;;;;;14.02;1.02;;;10.10;99.90;;;;;;5009555;28;20066;-78
2024/03/16 09:19:40;;;;;;;6.30;0.85;;;10.10;99.90;;;;;;4994571;28;20095;-78
2024/03/16 09:22:06;;;;;;;6.00;0.80;;;10.20;99.90;;;;;;5001729;28;20045;-79
2024/03/16 09:24:31;;;;;;;6.45;0.80;;;10.20;99.90;;;;;;5028525;28;20026;-78
2024/03/16 09:26:57;;;;;;;6.07;0.70;;;10.20;99.90;;;;;;5028747;28;20461;-77
2024/03/16 09:29:22;;;;;;;4.75;0.75;;;10.20;99.90;;;;;;5029319;28;20030;-78
2024/03/16 09:31:48;;;;;;;7.43;0.85;;;10.30;99.90;;;;;;5002231;28;20025;-78
2024/03/16 09:34:14;;;;;;;9.35;0.95;;;10.30;99.70;;;;;;5024149;28;20529;-78
2024/03/16 09:36:40;;;;;;;7.47;1.47;;;10.30;99.40;;;;;;5012163;28;20037;-78
2024/03/16 09:39:10;;;;;;;4.53;0.73;;;10.30;98.90;;;;;;5011815;28;20025;-78
2024/03/16 09:41:38;;;;;;;2.47;0.80;;;10.40;98.60;;;;;;5008331;28;20018;-78
2024/03/16 09:44:11;;;;;;;6.73;1.07;;;10.40;98.70;;;;;;5017329;28;20532;-78
2024/03/16 09:46:42;;;;;;;2.70;0.55;;;10.50;99.10;;;;;;5002462;28;20080;-78
2024/03/16 09:49:09;;;;;;;4.45;0.88;;;10.60;98.70;;;;;;5022546;28;20034;-78
2024/03/16 09:51:37;;;;;;;8.93;0.73;;;10.60;98.40;;;;;;5019602;28;20018;-78
2024/03/16 09:54:09;;;;;;;4.70;0.82;;;10.60;97.90;;;;;;5022012;28;20028;-78
2024/03/16 09:56:36;;;;;;;3.42;0.60;;;10.70;98.20;;;;;;5021467;28;20482;-77
2024/03/16 09:59:17;;;;;;;9.70;1.02;;;10.80;98.30;;;;;;5037706;28;20029;-78
2024/03/16 10:01:43;;;;;;;5.05;0.70;;;10.80;97.00;;;;;;5020025;28;20014;-77
2024/03/16 10:04:08;;;;;;;5.22;0.60;;;10.80;96.30;;;;;;5021360;28;20092;-78
2024/03/16 10:06:34;;;;;;;7.45;1.00;;;10.80;95.80;;;;;;5022843;28;20022;-78
2024/03/16 10:09:10;;;;;;;9.45;1.33;;;10.90;95.40;;;;;;5022461;28;20018;-79
2024/03/16 10:11:43;;;;;;;6.45;0.90;;;10.90;95.60;;;;;;5021855;28;20418;-78
2024/03/16 10:14:09;;;;;;;9.73;0.60;;;11.00;95.00;;;;;;5019899;28;20026;-78
2024/03/16 10:16:38;;;;;;;5.03;0.70;;;10.90;93.80;;;;;;5023503;28;20022;-78
2024/03/16 10:19:06;;;;;;;3.42;0.63;;;10.90;92.90;;;;;;5036265;28;20068;-78
2024/03/16 10:21:32;;;;;;;3.88;0.65;;;10.90;92.90;;;;;;5022675;28;20044;-78
2024/03/16 10:23:58;;;;;;;6.38;0.93;;;10.80;92.60;;;;;;5022590;28;20022;-78
2024/03/16 10:26:24;;;;;;;5.07;0.65;;;10.80;91.70;;;;;;5017249;28;20022;-78
2024/03/16 10:28:53;;;;;;;6.88;0.60;;;10.80;91.10;;;;;;5022977;28;20014;-78
2024/03/16 10:31:22;;;;;;;3.65;0.60;;;10.70;90.20;;;;;;5021298;28;20024;-78
2024/03/16 10:33:48;;;;;;;7.07;0.63;;;10.80;89.50;;;;;;5015146;28;20054;-78
2024/03/16 10:36:17;;;;;;;3.78;0.60;;;10.80;88.40;;;;;;5010416;28;20522;-78
2024/03/16 10:38:44;;;;;;;3.97;0.60;;;10.80;88.80;;;;;;5012145;28;20022;-78
2024/03/16 10:41:11;;;;;;;4.28;0.68;;;10.80;88.60;;;;;;5012626;28;20014;-78
2024/03/16 10:43:38;;;;;;;7.38;0.90;;;10.80;88.50;;;;;;5019290;28;20022;-78
2024/03/16 10:46:09;;;;;;;3.85;0.77;;;10.90;87.30;;;;;;5018691;28;20477;-78
2024/03/16 10:48:38;;;;;;;5.43;0.70;;;10.80;86.60;;;;;;5016879;28;20160;-78
2024/03/16 10:51:08;;;;;;;5.50;0.60;;;10.80;86.40;;;;;;5022921;28;20060;-78
2024/03/16 10:53:36;;;;;;;6.75;0.60;;;10.80;86.80;;;;;;5025004;28;20083;-78
2024/03/16 10:56:03;;;;;;;6.18;0.85;;;10.80;88.30;;;;;;5023925;28;20026;-78
2024/03/16 10:58:29;;;;;;;6.10;0.57;;;10.90;89.20;;;;;;5025768;28;20022;-78
2024/03/16 11:01:07;;;;;;;5.88;0.57;;;11.00;88.80;;;;;;5047821;28;20031;-78
2024/03/16 11:03:36;;;;;;;5.05;0.80;;;11.10;88.80;;;;;;5027146;28;20025;-78
2024/03/16 11:06:12;;;;;;;17.00;1.10;;;11.10;88.40;;;;;;5025269;28;20026;-78
2024/03/16 11:08:42;;;;;;;7.85;1.15;;;11.20;88.80;;;;;;5010128;28;20084;-78
2024/03/16 11:11:32;;;;;;;3.00;0.40;;;11.30;88.50;;;;;;4996342;28;20026;-78
2024/03/16 11:13:58;;;;;;;6.60;0.85;;;11.40;87.60;;;;;;5003169;28;20033;-79
2024/03/16 11:16:34;;;;;;;5.47;0.60;;;11.40;87.20;;;;;;5016789;28;20031;-79
2024/03/16 11:19:01;;;;;;;2.40;0.40;;;11.40;87.80;;;;;;5011333;28;20030;-78
2024/03/16 11:21:28;;;;;;;6.55;0.80;;;11.50;87.10;;;;;;4995708;28;20208;-78
2024/03/16 11:24:02;;;;;;;6.35;0.80;;;11.50;84.40;;;;;;5026244;28;20094;-78
2024/03/16 11:26:27;;;;;;;6.45;0.85;;;11.40;83.90;;;;;;5046031;28;20049;-78
2024/03/16 11:29:15;;;;;;;6.60;1.13;;;11.30;82.90;;;;;;5035758;28;20060;-79
2024/03/16 11:31:49;;;;;;;7.43;0.90;;;11.30;83.80;;;;;;5034269;28;20117;-78
2024/03/16 11:34:16;;;;;;;2.10;0.55;;;11.20;84.30;;;;;;5035964;28;20559;-78
2024/03/16 11:36:48;;;;;;;4.20;0.70;;;11.30;83.70;;;;;;5050699;28;20022;-77
2024/03/16 11:39:24;;;;;;;4.47;0.60;;;11.30;83.50;;;;;;5031958;28;20076;-78
2024/03/16 11:41:50;;;;;;;8.07;0.82;;;11.30;83.40;;;;;;4998423;28;20517;-79
2024/03/16 11:44:17;;;;;;;7.35;0.95;;;11.40;84.20;;;;;;5002331;28;20026;-78
2024/03/16 11:46:44;;;;;;;6.65;0.70;;;11.40;84.40;;;;;;5018943;28;20022;-78
2024/03/16 11:49:11;;;;;;;4.50;0.63;;;11.60;84.80;;;;;;5019678;28;20109;-78
2024/03/16 11:51:37;;;;;;;6.43;0.90;;;11.70;85.20;;;;;;4996101;28;20477;-79
2024/03/16 11:54:04;;;;;;;6.10;0.82;;;12.00;85.50;;;;;;5011038;28;20027;-77
2024/03/16 11:56:31;;;;;;;7.07;0.60;;;12.30;85.20;;;;;;4994653;28;20176;-78
2024/03/16 11:58:58;;;;;;;5.88;0.68;;;12.50;83.10;;;;;;5010885;28;20117;-79
2024/03/16 12:01:24;;;;;;;5.55;0.63;;;12.50;81.20;;;;;;5010932;28;20018;-78
2024/03/16 12:03:51;;;;;;;2.70;0.30;;;12.60;81.80;;;;;;5009774;28;20044;-78
2024/03/16 12:06:19;;;;;;;3.30;0.50;;;12.70;82.00;;;;;;4995884;28;20018;-77
2024/03/16 12:08:45;;;;;;;4.32;0.73;;;13.00;83.30;;;;;;5010857;28;20052;-78
2024/03/16 12:11:11;;;;;;;3.25;0.43;;;13.80;85.90;;;;;;5015071;28;20192;-78
2024/03/16 12:13:37;;;;;;;3.83;0.60;;;14.40;83.70;;;;;;5023339;28;20032;-78
2024/03/16 12:16:04;;;;;;;5.18;0.40;;;14.80;76.90;;;;;;5024435;28;20059;-78
2024/03/16 12:18:31;;;;;;;4.47;0.70;;;14.80;74.40;;;;;;5020741;28;20062;-77
2024/03/16 12:20:57;;;;;;;5.75;0.50;;;15.00;72.70;;;;;;5013805;28;20385;-78
2024/03/16 12:23:29;;;;;;;3.35;0.40;;;14.90;69.00;;;;;;5015113;28;20042;-78
2024/03/16 12:25:58;;;;;;;4.35;0.60;;;14.80;68.60;;;;;;5021388;28;20080;-78
2024/03/16 12:28:27;;;;;;;4.38;0.47;;;14.80;69.10;;;;;;5022254;28;20009;-78
2024/03/16 12:30:53;;;;;;;3.45;0.40;;;14.80;68.70;;;;;;5020628;28;20014;-78
2024/03/16 12:33:20;;;;;;;4.88;0.60;;;14.90;68.40;;;;;;5023509;28;20021;-77
2024/03/16 12:35:45;;;;;;;4.07;0.65;;;15.00;67.90;;;;;;5046402;28;20097;-78
2024/03/16 12:38:11;;;;;;;4.47;0.50;;;14.90;65.50;;;;;;5047035;28;20109;-77
2024/03/16 12:40:40;;;;;;;6.18;0.75;;;14.80;64.40;;;;;;5024524;28;20013;-77
2024/03/16 12:43:08;;;;;;;2.28;0.50;;;14.60;65.10;;;;;;5023968;28;20069;-77
2024/03/16 12:45:34;;;;;;;3.63;0.50;;;14.70;66.10;;;;;;5009862;28;20490;-77
2024/03/16 12:48:00;;;;;;;7.88;0.80;;;14.60;66.20;;;;;;4995211;28;20034;-78